Time;durP1;ratioP1;P1;durP2;ratioP2;P2;SDS_P1;SDS_P2;PMS_P1;PMS_P2;Temp;Humidity;BMP_temperature;BMP_pressure;BME280_temperature;BME280_humidity;BME280_pressure;Samples;Min_cycle;Max_cycle;Signal;HPM_P1;HPM_P2
2022/11/05 00:16:42;;;;;;;2.78;1.20;;;;;;;10.25;81.20;97310.19;4487121;31;20110;-82
2022/11/05 00:16:51;;;;;;;2.17;1.00;;;;;;;10.34;80.55;97301.97;4487088;32;20100;-82
2022/11/05 00:19:18;;;;;;;2.17;0.90;;;;;;;10.52;80.04;97300.12;4487043;31;20371;-82
2022/11/05 00:27:16;;;;;;;2.28;1.20;;;;;;;10.30;80.73;97305.59;4486919;31;20107;-82
2022/11/05 00:29:42;;;;;;;;;;;;;;;10.57;79.19;97305.88;4486580;31;20107;-82
2022/11/05 00:32:09;;;;;;;3.83;1.20;;;;;;;10.63;78.50;97311.56;4486901;31;20400;-82
2022/11/05 00:34:36;;;;;;;;;;;;;;;10.45;79.58;97306.53;4487106;32;20570;-82
2022/11/05 00:37:03;;;;;;;4.37;1.20;;;;;;;10.26;80.97;97317.84;4486613;32;19989;-82
2022/11/05 00:39:30;;;;;;;1.85;1.00;;;;;;;10.75;78.88;97319.53;4486678;31;20089;-82
2022/11/05 00:45:00;;;;;;;1.40;0.80;;;;;;;10.68;78.65;97316.44;4486820;32;19990;-82
2022/11/05 00:50:20;;;;;;;1.60;1.00;;;;;;;9.95;81.97;97320.31;4477868;31;20115;-82
2022/11/05 00:52:54;;;;;;;1.55;0.98;;;;;;;9.93;82.33;97325.56;4486547;31;20427;-82
2022/11/05 00:55:27;;;;;;;2.03;1.00;;;;;;;10.50;79.80;97326.00;4485466;32;20545;-82
2022/11/05 00:57:54;;;;;;;2.83;1.15;;;;;;;10.62;79.14;97332.25;4486285;31;20473;-82
2022/11/05 01:00:22;;;;;;;2.15;1.50;;;;;;;10.50;78.45;97330.31;4485179;32;20375;-82
2022/11/05 01:02:49;;;;;;;2.10;0.90;;;;;;;10.66;78.31;97339.75;4486435;31;20476;-82
2022/11/05 01:05:16;;;;;;;1.75;0.75;;;;;;;11.01;77.51;97332.66;4486066;31;20097;-82
2022/11/05 01:07:43;;;;;;;1.50;1.00;;;;;;;11.44;75.85;97343.13;4486346;31;20092;-82
2022/11/05 01:10:10;;;;;;;2.10;1.00;;;;;;;10.42;79.99;97333.34;4485951;31;20088;-82
2022/11/05 01:12:37;;;;;;;;;;;;;;;9.84;82.78;97329.44;4486653;32;20095;-82
2022/11/05 01:15:05;;;;;;;1.95;1.12;;;;;;;9.86;82.74;97335.34;4486205;31;19975;-82
2022/11/05 01:17:32;;;;;;;2.30;1.12;;;;;;;10.57;79.84;97329.94;4486131;31;20111;-82
2022/11/05 01:19:59;;;;;;;1.73;0.98;;;;;;;10.45;80.87;97329.75;4486067;31;20768;-82
2022/11/05 01:22:26;;;;;;;2.55;0.90;;;;;;;10.17;81.47;97320.03;4486249;31;20374;-81
2022/11/05 01:24:52;;;;;;;2.62;0.90;;;;;;;10.22;81.75;97331.81;4485879;31;20092;-82
2022/11/05 01:27:19;;;;;;;;;;;;;;;10.71;80.98;97336.91;4486487;31;20107;-81
2022/11/05 01:29:46;;;;;;;1.83;0.70;;;;;;;10.23;82.57;97333.47;4485803;31;19987;-82
2022/11/05 01:32:13;;;;;;;0.93;0.80;;;;;;;10.64;81.58;97338.19;4484426;32;20099;-82
2022/11/05 01:34:40;;;;;;;1.60;0.90;;;;;;;9.86;83.86;97331.94;4486036;31;20116;-81
2022/11/05 01:37:07;;;;;;;2.55;1.00;;;;;;;9.46;86.39;97338.25;4487587;31;20111;-81
2022/11/05 01:39:34;;;;;;;1.95;0.95;;;;;;;10.18;83.55;97326.84;4488033;31;20103;-82
2022/11/05 01:42:00;;;;;;;;;;;;;;;10.05;84.97;97332.66;4488582;31;20091;-82
2022/11/05 01:44:53;;;;;;;2.70;1.10;;;;;;;9.30;87.68;97339.91;4488371;31;19968;-82
2022/11/05 01:47:30;;;;;;;0.95;0.80;;;;;;;9.55;86.92;97342.94;4488013;31;20096;-81
2022/11/05 01:49:59;;;;;;;2.50;1.20;;;;;;;10.17;83.63;97340.66;4488323;31;20088;-82
2022/11/05 01:52:28;;;;;;;1.67;1.10;;;;;;;9.88;84.65;97345.56;4487817;31;20103;-82
2022/11/05 01:54:55;;;;;;;2.50;1.08;;;;;;;10.06;84.67;97346.38;4487066;32;20795;-82
2022/11/05 01:57:22;;;;;;;2.90;1.35;;;;;;;10.18;83.90;97343.16;4487147;32;20109;-81
2022/11/05 01:59:52;;;;;;;1.85;1.10;;;;;;;9.75;84.76;97336.78;4487778;31;20093;-81
2022/11/05 02:02:19;;;;;;;6.20;1.33;;;;;;;9.42;87.48;97329.00;4488275;31;20103;-81
2022/11/05 02:04:52;;;;;;;2.17;1.12;;;;;;;9.52;85.96;97325.91;4488115;31;20120;-82
2022/11/05 02:07:20;;;;;;;2.08;1.30;;;;;;;9.97;83.79;97346.84;4487928;31;20093;-81
2022/11/05 02:09:52;;;;;;;2.72;1.12;;;;;;;9.74;84.08;97335.13;4487934;31;20092;-82
2022/11/05 02:12:20;;;;;;;3.83;1.40;;;;;;;9.97;84.10;97328.78;4486977;32;20145;-82
2022/11/05 02:14:47;;;;;;;3.35;1.30;;;;;;;9.68;84.45;97340.59;4487747;31;20092;-82
2022/11/05 02:17:23;;;;;;;2.28;1.33;;;;;;;9.78;85.09;97334.06;4488168;31;20107;-82
2022/11/05 02:20:06;;;;;;;2.47;0.98;;;;;;;9.88;83.95;97317.22;4488087;31;20391;-81
2022/11/05 02:22:51;;;;;;;2.60;1.20;;;;;;;10.18;82.50;97329.44;4487740;32;20141;-82
2022/11/05 02:26:02;;;;;;;3.20;1.40;;;;;;;9.96;83.81;97327.97;4487973;32;20442;-82
2022/11/05 02:28:50;;;;;;;1.35;0.82;;;;;;;9.89;83.88;97344.69;4487481;32;20111;-81
2022/11/05 02:31:17;;;;;;;;;;;;;;;10.03;83.09;97349.94;4488167;32;20089;-81
2022/11/05 02:34:01;;;;;;;2.25;1.20;;;;;;;9.92;84.20;97341.09;4487973;32;19974;-82
2022/11/05 02:36:34;;;;;;;4.28;1.77;;;;;;;9.96;83.82;97348.59;4486399;32;20115;-82
2022/11/05 02:39:23;;;;;;;2.83;1.30;;;;;;;9.99;82.86;97338.09;4488124;31;20087;-82
2022/11/05 02:42:07;;;;;;;3.83;1.50;;;;;;;9.74;84.42;97342.84;4487607;31;20469;-82
2022/11/05 02:44:56;;;;;;;5.25;1.37;;;;;;;9.68;84.15;97349.16;4487864;31;20076;-82
2022/11/05 02:47:28;;;;;;;2.50;1.40;;;;;;;9.42;86.04;97324.69;4487873;31;20149;-82
2022/11/05 02:50:10;;;;;;;2.70;1.40;;;;;;;9.44;86.11;97337.50;4486358;32;20104;-82
2022/11/05 02:53:00;;;;;;;2.65;1.20;;;;;;;9.26;86.35;97336.66;4487827;32;20103;-82
2022/11/05 02:55:41;;;;;;;3.58;1.37;;;;;;;9.59;84.95;97333.34;4487448;31;20084;-82
2022/11/05 02:58:08;;;;;;;4.37;1.23;;;;;;;9.51;84.99;97323.41;4486599;32;20451;-82
2022/11/05 03:01:05;;;;;;;2.17;1.12;;;;;;;9.90;83.41;97323.16;4487705;31;20100;-82
2022/11/05 03:03:47;;;;;;;2.67;1.40;;;;;;;9.43;85.05;97320.38;4486748;31;20088;-82
2022/11/05 03:06:41;;;;;;;5.75;1.70;;;;;;;9.52;84.93;97305.31;4473624;32;20610;-82
2022/11/05 03:09:08;;;;;;;3.10;1.45;;;;;;;9.19;86.78;97312.13;4487841;32;20096;-82
2022/11/05 03:11:48;;;;;;;;;;;;;;;9.20;86.14;97308.66;4487691;31;20111;-82
2022/11/05 03:14:20;;;;;;;3.22;1.40;;;;;;;9.16;86.61;97323.41;4487830;31;19968;-81
2022/11/05 03:16:57;;;;;;;4.32;1.90;;;;;;;9.16;86.28;97336.28;4487438;31;20072;-82
2022/11/05 03:19:48;;;;;;;6.57;1.62;;;;;;;9.21;85.82;97347.16;4487780;31;20125;-82
2022/11/05 03:22:23;;;;;;;3.10;1.40;;;;;;;9.17;86.36;97348.25;4486892;32;20172;-82
2022/11/05 03:24:57;;;;;;;4.85;1.70;;;;;;;9.49;83.66;97346.66;4486132;32;20092;-82
2022/11/05 03:27:29;;;;;;;4.82;2.00;;;;;;;9.37;84.70;97372.19;4486579;32;20145;-82
2022/11/05 03:30:08;;;;;;;3.83;1.98;;;;;;;9.23;85.62;97376.25;4486111;32;20520;-82
2022/11/05 03:32:38;;;;;;;2.83;1.05;;;;;;;9.26;85.33;97383.84;4486036;32;20126;-82
2022/11/05 03:35:14;;;;;;;4.05;1.70;;;;;;;9.66;83.79;97394.75;4486282;32;20101;-82
2022/11/05 03:37:43;;;;;;;3.60;1.70;;;;;;;9.21;85.29;97405.53;4487292;32;20103;-82
2022/11/05 03:40:11;;;;;;;4.93;1.90;;;;;;;8.98;86.35;97396.34;4473399;32;20105;-82
2022/11/05 03:42:40;;;;;;;4.93;1.98;;;;;;;9.29;85.45;97406.03;4486378;32;20134;-82
2022/11/05 03:45:10;;;;;;;5.12;2.05;;;;;;;9.15;86.03;97416.16;4485869;32;20089;-82
2022/11/05 03:47:38;;;;;;;3.20;1.35;;;;;;;9.72;83.67;97425.37;4486320;32;20084;-81
2022/11/05 03:50:18;;;;;;;6.95;2.25;;;;;;;9.04;85.28;97419.22;4486333;32;20104;-82
2022/11/05 03:52:50;;;;;;;5.95;1.92;;;;;;;9.29;84.66;97411.16;4487104;31;20156;-82
2022/11/05 03:55:18;;;;;;;4.10;1.83;;;;;;;9.50;83.35;97427.34;4487378;31;20115;-82
2022/11/05 03:57:48;;;;;;;4.07;2.00;;;;;;;10.13;80.89;97430.22;4486268;32;20108;-82
2022/11/05 04:00:15;;;;;;;2.95;1.50;;;;;;;9.69;82.34;97417.81;4486323;31;20096;-82
2022/11/05 04:02:42;;;;;;;4.40;1.60;;;;;;;9.48;84.15;97424.84;4486185;32;20123;-82
2022/11/05 04:05:09;;;;;;;3.85;1.80;;;;;;;9.48;83.41;97409.37;4487221;31;20111;-82
2022/11/05 04:13:24;;;;;;;5.28;1.60;;;;;;;9.42;82.46;97412.25;4486805;31;20115;-82
2022/11/05 04:18:39;;;;;;;3.53;1.77;;;;;;;9.97;80.90;97403.53;4487117;31;20325;-82
2022/11/05 04:24:07;;;;;;;3.33;1.50;;;;;;;9.67;82.34;97403.31;4487254;31;20111;-82
2022/11/05 04:26:36;;;;;;;4.45;1.75;;;;;;;9.77;81.96;97402.78;4487023;31;20567;-82
2022/11/05 04:31:48;;;;;;;3.65;1.50;;;;;;;9.75;81.71;97398.62;4486850;32;22019;-81
2022/11/05 04:34:17;;;;;;;5.78;1.52;;;;;;;9.95;81.19;97387.31;4486576;31;20101;-82
2022/11/05 04:36:48;;;;;;;2.55;1.30;;;;;;;10.58;78.89;97387.50;4486778;31;20099;-82
2022/11/05 04:39:19;;;;;;;3.37;1.40;;;;;;;9.57;81.90;97387.50;4485688;32;20107;-82
2022/11/05 04:41:47;;;;;;;3.47;1.45;;;;;;;9.44;82.94;97383.84;4486382;31;20508;-82
2022/11/05 04:44:15;;;;;;;3.83;1.52;;;;;;;9.86;81.03;97375.72;4486715;31;20458;-81
2022/11/05 04:46:42;;;;;;;4.43;1.65;;;;;;;10.19;79.38;97380.06;4485565;32;20115;-81
2022/11/05 04:49:09;;;;;;;6.32;2.05;;;;;;;9.44;83.18;97382.09;4486293;31;20106;-82
2022/11/05 04:51:36;;;;;;;2.47;1.40;;;;;;;9.80;81.52;97376.06;4486514;31;20423;-82
2022/11/05 04:54:03;;;;;;;;;;;;;;;9.94;80.76;97383.91;4485788;32;20108;-82
2022/11/05 04:56:30;;;;;;;3.03;1.30;;;;;;;9.96;80.99;97384.66;4486131;31;19971;-82
2022/11/05 04:58:56;;;;;;;2.83;1.30;;;;;;;9.63;82.65;97386.34;4486622;31;20072;-82
2022/11/05 05:01:24;;;;;;;;;;;;;;;10.42;78.61;97379.75;4486810;31;20456;-82
2022/11/05 05:03:52;;;;;;;2.95;1.33;;;;;;;10.80;76.83;97387.19;4486309;31;20003;-81
2022/11/05 05:06:20;;;;;;;3.20;1.50;;;;;;;10.78;76.45;97387.28;4486401;31;20148;-82
2022/11/05 05:08:48;;;;;;;3.97;1.50;;;;;;;9.49;82.11;97387.03;4486156;31;20439;-82
2022/11/05 05:11:17;;;;;;;1.67;1.10;;;;;;;9.74;81.64;97371.19;4486837;31;20461;-81
2022/11/05 05:13:44;;;;;;;2.67;1.40;;;;;;;10.13;79.74;97387.22;4488609;31;20145;-82
2022/11/05 05:16:22;;;;;;;3.00;1.48;;;;;;;9.62;82.60;97385.53;4488069;31;20093;-82
2022/11/05 05:18:49;;;;;;;2.40;1.30;;;;;;;9.79;81.72;97384.69;4488613;31;20379;-82
2022/11/05 05:24:08;;;;;;;5.28;1.73;;;;;;;9.56;82.60;97363.47;4488265;31;20450;-82
2022/11/05 05:26:37;;;;;;;4.10;1.73;;;;;;;9.31;83.92;97372.47;4488486;31;20088;-82
2022/11/05 05:29:05;;;;;;;4.10;1.70;;;;;;;9.89;82.10;97382.47;4487078;32;20076;-82
2022/11/05 05:31:32;;;;;;;4.25;1.55;;;;;;;9.76;82.15;97393.38;4488049;31;20085;-82
2022/11/05 05:33:59;;;;;;;4.00;1.73;;;;;;;9.78;82.45;97391.59;4488645;31;20115;-82
2022/11/05 05:36:26;;;;;;;4.35;1.75;;;;;;;9.25;84.20;97407.91;4488253;31;20192;-82
2022/11/05 05:38:53;;;;;;;;;;;;;;;9.94;82.19;97409.69;4488565;31;20081;-82
2022/11/05 05:41:20;;;;;;;4.65;1.50;;;;;;;9.36;83.97;97419.41;4487133;32;19976;-82
2022/11/05 05:43:47;;;;;;;3.90;1.67;;;;;;;9.82;81.87;97434.31;4488049;31;20184;-82
2022/11/05 05:46:14;;;;;;;;;;;;;;;10.27;79.12;97437.28;4488509;31;20085;-82
2022/11/05 05:48:42;;;;;;;2.85;1.62;;;;;;;10.35;79.47;97441.13;4488390;31;20515;-82
2022/11/05 05:51:10;;;;;;;4.07;1.50;;;;;;;10.39;79.08;97454.69;4487800;31;20100;-82
2022/11/05 05:53:37;;;;;;;4.80;1.87;;;;;;;10.26;80.04;97469.97;4488098;31;20153;-82
2022/11/05 05:56:05;;;;;;;3.25;1.80;;;;;;;10.18;80.18;97455.75;4488145;31;20423;-82
2022/11/05 05:58:34;;;;;;;5.00;1.70;;;;;;;9.50;82.82;97464.22;4487931;31;20472;-82
2022/11/05 06:01:03;;;;;;;4.12;1.73;;;;;;;9.82;82.85;97465.25;4486949;32;20119;-82
2022/11/05 06:03:30;;;;;;;3.70;1.80;;;;;;;10.29;80.41;97462.06;4488150;32;20446;-82
2022/11/05 06:06:06;;;;;;;4.85;2.03;;;;;;;9.95;81.36;97472.38;4487687;31;20100;-82
2022/11/05 06:08:33;;;;;;;4.22;1.98;;;;;;;10.19;81.04;97476.28;4488206;31;20152;-82
2022/11/05 06:11:01;;;;;;;3.22;1.50;;;;;;;10.03;81.23;97483.97;4488073;31;20104;-82
2022/11/05 06:13:28;;;;;;;5.95;1.85;;;;;;;10.15;80.81;97493.66;4487643;31;20080;-82
2022/11/05 06:16:00;;;;;;;3.17;1.50;;;;;;;9.98;81.13;97498.81;4486813;32;20092;-82
2022/11/05 06:18:28;;;;;;;4.75;1.67;;;;;;;10.48;78.34;97505.81;4486928;32;20160;-82
2022/11/05 06:21:03;;;;;;;4.07;1.85;;;;;;;10.70;77.67;97514.09;4487606;31;20096;-82
2022/11/05 06:23:31;;;;;;;4.90;1.70;;;;;;;10.81;77.72;97512.72;4486701;32;20112;-82
2022/11/05 06:26:00;;;;;;;2.47;1.33;;;;;;;10.47;78.95;97524.78;4487540;31;20154;-82
2022/11/05 06:28:28;;;;;;;4.78;1.90;;;;;;;11.18;75.94;97521.94;4487974;32;20099;-82
2022/11/05 06:30:56;;;;;;;4.03;1.60;;;;;;;10.95;76.26;97516.25;4487744;31;20119;-82
2022/11/05 06:33:23;;;;;;;3.53;1.67;;;;;;;10.51;78.32;97523.69;4487581;31;20088;-82
2022/11/05 06:35:50;;;;;;;3.92;1.62;;;;;;;10.56;78.34;97513.16;4488048;31;20096;-82
2022/11/05 06:38:17;;;;;;;3.08;1.40;;;;;;;10.20;79.54;97511.47;4488067;31;20072;-82
2022/11/05 06:40:44;;;;;;;3.33;1.27;;;;;;;10.60;77.31;97519.81;4487473;32;20371;-82
2022/11/05 06:43:11;;;;;;;2.97;1.50;;;;;;;10.89;76.23;97521.72;4487908;32;20097;-82
2022/11/05 06:45:39;;;;;;;2.87;1.30;;;;;;;10.63;77.60;97517.06;4487696;31;20155;-82
2022/11/05 06:48:06;;;;;;;3.87;1.50;;;;;;;10.11;80.26;97510.19;4487529;31;20441;-82
2022/11/05 06:50:33;;;;;;;2.75;1.30;;;;;;;10.08;79.96;97512.06;4487821;31;20104;-82
2022/11/05 06:53:02;;;;;;;2.50;1.40;;;;;;;10.44;78.79;97512.03;4487766;31;20088;-82
2022/11/05 06:55:30;;;;;;;3.62;1.58;;;;;;;10.72;78.33;97517.44;4486182;32;20080;-82
2022/11/05 06:57:57;;;;;;;3.72;1.60;;;;;;;10.38;78.93;97522.66;4487867;31;20103;-82
2022/11/05 07:00:24;;;;;;;4.22;1.67;;;;;;;10.45;79.58;97529.19;4487728;31;20100;-82
2022/11/05 07:02:51;;;;;;;2.92;1.50;;;;;;;10.20;80.10;97539.00;4487485;32;20097;-82
2022/11/05 07:05:18;;;;;;;3.17;1.42;;;;;;;10.41;79.00;97538.78;4487601;31;20431;-82
2022/11/05 07:07:45;;;;;;;3.92;1.87;;;;;;;10.39;78.48;97542.38;4487769;32;20076;-82
2022/11/05 07:10:15;;;;;;;3.97;1.60;;;;;;;10.95;76.63;97536.03;4486312;32;20443;-82
2022/11/05 07:12:42;;;;;;;2.42;1.23;;;;;;;10.91;76.56;97556.03;4486504;32;20104;-82
2022/11/05 07:15:10;;;;;;;3.95;1.65;;;;;;;10.48;78.39;97544.50;4487258;31;20107;-82
2022/11/05 07:17:38;;;;;;;2.47;1.40;;;;;;;10.35;78.74;97553.75;4487745;31;20085;-82
2022/11/05 07:20:06;;;;;;;3.53;1.52;;;;;;;9.99;80.39;97552.00;4487588;32;20111;-82
2022/11/05 07:22:34;;;;;;;5.00;1.37;;;;;;;10.65;77.97;97553.97;4487335;31;20111;-82
2022/11/05 07:25:01;;;;;;;3.35;1.40;;;;;;;10.48;78.56;97544.50;4487413;32;20088;-82
2022/11/05 07:27:27;;;;;;;4.55;1.83;;;;;;;10.97;76.64;97550.56;4487579;31;20549;-82
2022/11/05 07:29:54;;;;;;;3.42;1.67;;;;;;;10.96;76.77;97551.47;4486952;31;20099;-82
2022/11/05 07:32:22;;;;;;;2.62;1.05;;;;;;;10.70;78.37;97557.97;4487520;31;20115;-82
2022/11/05 07:34:48;;;;;;;4.60;1.83;;;;;;;11.14;75.73;97547.09;4486801;31;20106;-81
2022/11/05 07:37:15;;;;;;;4.05;1.60;;;;;;;11.65;74.12;97557.28;4487156;32;20099;-82
2022/11/05 07:39:42;;;;;;;3.55;1.45;;;;;;;11.41;74.23;97549.97;4486318;32;20113;-82
2022/11/05 07:42:11;;;;;;;;;;;;;;;11.48;74.81;97564.22;4487816;31;20426;-82
2022/11/05 07:44:37;;;;;;;4.20;1.62;;;;;;;11.34;74.74;97558.09;4487097;31;20007;-82
2022/11/05 07:47:04;;;;;;;3.42;1.48;;;;;;;12.07;73.19;97567.84;4487600;31;20107;-82
2022/11/05 07:49:31;;;;;;;;;;;;;;;10.99;75.71;97542.75;4487683;31;20351;-82
2022/11/05 07:51:58;;;;;;;4.68;1.80;;;;;;;11.28;76.90;97549.78;4487227;31;19994;-81
2022/11/05 07:54:25;;;;;;;;;;;;;;;11.50;74.80;97549.47;4487478;31;20076;-81
2022/11/05 07:56:52;;;;;;;4.62;1.80;;;;;;;12.18;72.75;97554.31;4487413;31;19986;-82
2022/11/05 07:59:19;;;;;;;;;;;;;;;11.67;74.34;97560.63;4487327;31;20096;-82
2022/11/05 08:01:46;;;;;;;5.12;2.00;;;;;;;12.50;72.30;97569.75;4487276;32;19980;-81
2022/11/05 08:04:13;;;;;;;3.60;1.55;;;;;;;11.86;74.57;97580.22;4486850;31;20110;-82
2022/11/05 08:06:40;;;;;;;4.32;1.60;;;;;;;11.43;74.90;97555.88;4487280;32;20080;-82
2022/11/05 08:09:06;;;;;;;7.97;1.98;;;;;;;11.71;75.77;97568.13;4485939;32;20457;-81
2022/11/05 08:11:34;;;;;;;3.10;1.55;;;;;;;12.55;71.54;97550.47;4486964;31;20406;-81
2022/11/05 08:14:01;;;;;;;7.28;2.00;;;;;;;11.66;74.81;97546.84;4487169;31;20457;-81
2022/11/05 08:16:28;;;;;;;6.00;1.80;;;;;;;11.70;75.61;97544.97;4487067;31;20084;-82
2022/11/05 08:18:55;;;;;;;6.93;2.00;;;;;;;12.35;72.48;97555.97;4485889;32;20115;-81
2022/11/05 08:21:21;;;;;;;;;;;;;;;11.68;74.57;97549.34;4487428;31;20122;-82
2022/11/05 08:23:48;;;;;;;5.37;1.92;;;;;;;12.42;70.75;97544.31;4487169;31;19971;-81
2022/11/05 08:26:15;;;;;;;;;;;;;;;11.67;75.29;97547.69;4486884;31;20122;-81
2022/11/05 08:28:42;;;;;;;3.72;1.67;;;;;;;11.63;75.94;97541.03;4486966;31;20342;-82
2022/11/05 08:31:09;;;;;;;;;;;;;;;11.46;76.25;97549.69;4486137;32;20482;-82
2022/11/05 08:33:35;;;;;;;8.10;2.45;;;;;;;12.01;74.27;97537.16;4486644;31;20016;-81
2022/11/05 08:36:03;;;;;;;5.30;1.70;;;;;;;12.45;72.60;97542.41;4486791;31;20367;-81
2022/11/05 08:38:30;;;;;;;5.22;1.73;;;;;;;12.55;72.32;97540.09;4486960;31;20103;-81
2022/11/05 08:40:57;;;;;;;3.50;1.67;;;;;;;11.93;74.65;97547.13;4486396;31;20106;-82
2022/11/05 08:43:25;;;;;;;5.40;1.70;;;;;;;12.19;72.55;97540.47;4486835;31;20103;-81
2022/11/05 08:45:52;;;;;;;4.68;1.50;;;;;;;12.14;73.79;97539.91;4486508;32;20419;-81
2022/11/05 08:48:20;;;;;;;5.03;2.00;;;;;;;12.33;72.13;97540.50;4488470;32;20100;-82
2022/11/05 08:50:47;;;;;;;4.05;1.70;;;;;;;12.04;74.48;97533.59;4488599;31;20118;-81
2022/11/05 08:53:15;;;;;;;5.20;1.75;;;;;;;11.54;75.29;97543.19;4488279;31;20363;-81
2022/11/05 08:55:42;;;;;;;4.37;1.65;;;;;;;11.65;75.11;97539.19;4488511;31;20076;-81
2022/11/05 08:58:13;;;;;;;4.93;1.62;;;;;;;11.29;77.63;97527.38;4488761;31;20110;-81
2022/11/05 09:00:41;;;;;;;4.87;1.73;;;;;;;11.37;76.24;97532.94;4487139;32;20096;-82
2022/11/05 09:03:09;;;;;;;2.78;1.65;;;;;;;11.30;76.22;97532.44;4488688;31;20133;-81
2022/11/05 09:05:38;;;;;;;6.10;1.73;;;;;;;11.59;77.29;97536.03;4488410;31;20122;-81
2022/11/05 09:08:13;;;;;;;4.45;1.60;;;;;;;11.64;77.59;97532.37;4488393;31;20108;-82
2022/11/05 09:10:40;;;;;;;3.42;2.03;;;;;;;11.87;75.29;97525.03;4488622;31;20528;-81
2022/11/05 09:13:07;;;;;;;3.83;1.60;;;;;;;12.26;75.30;97523.69;4487396;32;20137;-81
2022/11/05 09:15:42;;;;;;;4.12;1.92;;;;;;;11.95;74.73;97521.19;4488146;31;20435;-81
2022/11/05 09:18:12;;;;;;;3.50;1.60;;;;;;;12.47;73.64;97533.72;4488547;31;20132;-81
2022/11/05 09:20:39;;;;;;;5.50;1.77;;;;;;;12.88;72.63;97520.91;4488387;32;20364;-81
2022/11/05 09:23:06;;;;;;;3.40;1.65;;;;;;;13.05;71.39;97523.28;4486879;32;20085;-82
2022/11/05 09:25:34;;;;;;;4.10;1.73;;;;;;;12.36;72.02;97519.66;4488260;31;20069;-81
2022/11/05 09:28:22;;;;;;;3.60;1.55;;;;;;;12.43;73.55;97520.09;4487283;32;20127;-82
2022/11/05 09:30:51;;;;;;;3.37;1.30;;;;;;;12.71;71.97;97540.84;4488234;31;20101;-82
2022/11/05 09:33:21;;;;;;;2.33;1.27;;;;;;;12.85;71.42;97523.66;4487137;32;20557;-81
2022/11/05 09:35:49;;;;;;;3.42;1.50;;;;;;;12.49;72.22;97522.34;4486803;32;20149;-82
2022/11/05 09:38:16;;;;;;;3.78;1.33;;;;;;;13.40;71.03;97526.34;4487359;32;20107;-81
2022/11/05 09:41:07;;;;;;;3.00;1.33;;;;;;;13.27;69.42;97531.44;4488316;31;20142;-82
2022/11/05 09:43:45;;;;;;;2.30;1.27;;;;;;;13.08;71.36;97530.03;4488069;32;20423;-81
2022/11/05 09:46:19;;;;;;;;;;;;;;;13.04;70.26;97540.59;4487349;32;20568;-81
2022/11/05 09:48:50;;;;;;;5.12;1.90;;;;;;;13.60;69.37;97549.22;4488340;32;19995;-81
2022/11/05 09:51:17;;;;;;;3.47;1.60;;;;;;;13.96;66.86;97547.84;4487987;31;20088;-82
2022/11/05 09:53:49;;;;;;;4.53;2.08;;;;;;;13.18;68.95;97549.25;4487100;32;20125;-82
2022/11/05 09:56:25;;;;;;;5.57;2.20;;;;;;;13.31;69.59;97576.97;4486622;32;20455;-82
2022/11/05 09:58:57;;;;;;;3.67;1.92;;;;;;;12.74;70.64;97558.78;4487029;32;20104;-82
2022/11/05 10:01:28;;;;;;;6.28;2.00;;;;;;;12.93;71.08;97571.47;4487081;32;20122;-82
2022/11/05 10:03:58;;;;;;;4.80;2.10;;;;;;;13.01;70.16;97571.84;4486702;32;20092;-82
2022/11/05 10:06:26;;;;;;;6.45;2.12;;;;;;;13.19;69.79;97569.97;4486998;32;20088;-81
2022/11/05 10:09:34;;;;;;;3.92;1.67;;;;;;;12.99;70.58;97575.47;4488285;31;20205;-81
2022/11/05 10:12:09;;;;;;;3.42;1.58;;;;;;;13.20;69.96;97570.78;4473674;32;20391;-82
2022/11/05 10:14:43;;;;;;;3.87;1.90;;;;;;;12.87;69.87;97582.22;4487915;31;20080;-82
2022/11/05 10:17:26;;;;;;;6.20;2.03;;;;;;;12.91;71.61;97577.69;4486883;32;20088;-82
2022/11/05 10:20:07;;;;;;;5.25;1.95;;;;;;;12.77;70.33;97585.44;4486910;32;20189;-81
2022/11/05 10:22:35;;;;;;;5.50;1.98;;;;;;;13.79;68.09;97590.41;4487083;32;20108;-81
2022/11/05 10:25:15;;;;;;;4.50;2.20;;;;;;;13.14;69.89;97594.44;4487598;32;20107;-81
2022/11/05 10:27:46;;;;;;;7.75;2.12;;;;;;;13.32;69.48;97599.38;4488071;31;20529;-81
2022/11/05 10:30:13;;;;;;;5.43;2.28;;;;;;;13.13;69.69;97600.53;4487728;31;20100;-81
2022/11/05 10:32:42;;;;;;;7.22;2.50;;;;;;;12.50;72.57;97588.69;4487753;31;20145;-81
2022/11/05 10:35:17;;;;;;;7.55;2.28;;;;;;;12.98;71.12;97595.34;4487873;32;20099;-81
2022/11/05 10:37:45;;;;;;;8.13;2.60;;;;;;;12.52;72.66;97604.97;4486915;32;20076;-81
2022/11/05 10:40:51;;;;;;;6.57;2.80;;;;;;;12.59;73.20;97600.28;4487545;31;20107;-82
2022/11/05 10:43:30;;;;;;;8.55;3.10;;;;;;;12.32;74.28;97605.25;4486867;32;20092;-81
2022/11/05 10:46:25;;;;;;;6.18;2.70;;;;;;;13.04;71.87;97605.34;4486346;32;20092;-81
2022/11/05 10:48:58;;;;;;;8.13;2.42;;;;;;;12.96;72.39;97591.16;4487911;31;20077;-81
2022/11/05 10:51:25;;;;;;;7.45;3.17;;;;;;;12.10;76.35;97600.47;4487818;31;20344;-81
2022/11/05 10:53:55;;;;;;;6.97;3.00;;;;;;;12.21;75.74;97592.09;4487367;32;20111;-81
2022/11/05 10:56:37;;;;;;;11.63;2.78;;;;;;;11.84;76.82;97578.66;4487769;31;20127;-81
2022/11/05 10:59:18;;;;;;;9.18;3.40;;;;;;;11.67;77.49;97576.13;4487938;31;20068;-82
2022/11/05 11:01:45;;;;;;;7.32;3.08;;;;;;;12.10;77.03;97592.69;4487440;31;20436;-81
2022/11/05 11:04:19;;;;;;;7.60;3.17;;;;;;;12.17;76.08;97578.53;4487772;31;20084;-82
2022/11/05 11:06:51;;;;;;;8.70;3.30;;;;;;;11.94;77.05;97556.53;4486267;32;20080;-81
2022/11/05 11:09:32;;;;;;;6.00;2.53;;;;;;;11.98;77.25;97581.28;4485457;32;20085;-81
2022/11/05 11:12:31;;;;;;;7.95;3.40;;;;;;;11.74;77.88;97567.94;4486666;32;20104;-81
2022/11/05 11:15:33;;;;;;;8.35;3.15;;;;;;;11.98;78.04;97581.28;4477123;32;20092;-81
2022/11/05 11:18:29;;;;;;;8.82;3.55;;;;;;;11.78;78.79;97584.94;4487780;31;20141;-81
2022/11/05 11:21:13;;;;;;;8.85;3.10;;;;;;;11.85;78.30;97588.91;4487331;31;20077;-81
2022/11/05 11:23:41;;;;;;;9.80;3.53;;;;;;;12.19;76.65;97597.38;4487732;31;20088;-81
2022/11/05 11:26:09;;;;;;;8.65;3.22;;;;;;;11.73;79.33;97599.87;4486349;32;20118;-81
2022/11/05 11:28:50;;;;;;;7.35;3.10;;;;;;;11.77;79.68;97593.63;4485962;32;20080;-81
2022/11/05 11:31:26;;;;;;;8.98;3.40;;;;;;;11.85;79.48;97601.00;4486441;32;20088;-81
2022/11/05 11:34:02;;;;;;;10.27;3.85;;;;;;;12.03;79.08;97592.22;4487568;31;20096;-81
2022/11/05 11:36:35;;;;;;;8.02;3.40;;;;;;;11.69;79.94;97576.84;4485939;32;20493;-81
2022/11/05 11:39:03;;;;;;;10.35;3.20;;;;;;;11.91;79.57;97580.00;4487612;31;20076;-81
2022/11/05 11:41:31;;;;;;;7.57;2.97;;;;;;;11.73;79.40;97568.88;4487465;31;20215;-82
2022/11/05 11:44:03;;;;;;;8.45;2.67;;;;;;;11.75;79.46;97577.37;4486063;32;20109;-81
2022/11/05 11:46:32;;;;;;;9.52;3.80;;;;;;;11.64;80.22;97591.78;4487410;31;20092;-81
2022/11/05 11:49:00;;;;;;;8.13;3.25;;;;;;;11.21;82.57;97581.16;4487181;31;20151;-81
2022/11/05 11:51:43;;;;;;;7.53;3.17;;;;;;;11.95;79.17;97572.88;4487382;31;20099;-81
2022/11/05 11:54:20;;;;;;;8.82;3.37;;;;;;;11.66;80.66;97583.03;4486325;32;20096;-81
2022/11/05 11:56:52;;;;;;;8.48;3.97;;;;;;;12.19;78.74;97579.25;4485982;32;20482;-82
2022/11/05 11:59:22;;;;;;;7.55;3.37;;;;;;;11.94;80.04;97592.75;4486302;32;20102;-81
2022/11/05 12:02:40;;;;;;;9.27;3.65;;;;;;;12.02;79.14;97600.09;4487194;31;20103;-81
2022/11/05 12:05:16;;;;;;;7.47;3.08;;;;;;;12.18;78.40;97600.87;4486644;32;20103;-81
2022/11/05 12:07:51;;;;;;;7.82;3.58;;;;;;;12.04;78.54;97599.06;4486132;32;20123;-81
2022/11/05 12:10:38;;;;;;;7.68;3.22;;;;;;;11.70;80.09;97614.75;4485788;32;20085;-81
2022/11/05 12:13:17;;;;;;;7.07;3.33;;;;;;;12.08;78.86;97599.72;4487356;31;20423;-81
2022/11/05 12:15:58;;;;;;;8.07;3.15;;;;;;;12.70;75.70;97595.31;4487073;31;20240;-81
2022/11/05 12:18:42;;;;;;;7.97;3.58;;;;;;;12.08;77.58;97602.31;4486986;31;20084;-81
2022/11/05 12:21:28;;;;;;;10.10;3.72;;;;;;;12.42;76.95;97588.28;4486732;31;20085;-81
2022/11/05 12:24:36;;;;;;;7.85;3.12;;;;;;;12.16;77.59;97582.03;4486776;31;20128;-81
2022/11/05 12:27:18;;;;;;;7.95;3.35;;;;;;;12.18;77.19;97587.13;4485913;32;20108;-82
2022/11/05 12:30:14;;;;;;;7.93;3.33;;;;;;;11.88;78.94;97591.31;4482181;31;143771;-81
2022/11/05 12:33:00;;;;;;;10.80;3.80;;;;;;;12.15;78.34;97594.13;4485549;32;20102;-81
2022/11/05 12:35:40;;;;;;;6.20;2.75;;;;;;;12.34;76.94;97603.44;4486816;31;20103;-81
2022/11/05 12:38:41;;;;;;;8.27;3.20;;;;;;;11.98;77.65;97604.56;4486658;31;20089;-82
2022/11/05 12:41:27;;;;;;;6.25;2.72;;;;;;;12.75;75.43;97601.03;4486906;32;20084;-81
2022/11/05 12:44:14;;;;;;;8.65;3.17;;;;;;;12.42;75.78;97622.75;4485795;32;20080;-81